createdAt,value
2022-10-05T00:00:17.050Z,53.74
2022-10-05T00:02:44.389Z,53.73
2022-10-05T00:05:33.004Z,53.78
2022-10-05T00:08:21.702Z,53.77
2022-10-05T00:10:49.838Z,53.78
2022-10-05T00:13:25.463Z,53.78
2022-10-05T00:16:00.284Z,53.79
2022-10-05T00:18:27.708Z,53.70
2022-10-05T00:20:55.143Z,53.77
2022-10-05T00:23:30.237Z,53.78
2022-10-05T00:26:17.493Z,53.80
2022-10-05T00:28:44.625Z,53.77
2022-10-05T00:31:26.675Z,53.79
2022-10-05T00:33:55.183Z,53.78
2022-10-05T00:36:22.567Z,53.77
2022-10-05T00:38:51.338Z,53.82
2022-10-05T00:41:51.692Z,53.80
2022-10-05T00:44:21.577Z,53.70
2022-10-05T00:47:11.947Z,53.79
2022-10-05T00:50:01.344Z,53.82
2022-10-05T00:52:59.230Z,53.79
2022-10-05T00:55:44.015Z,53.87
2022-10-05T00:58:20.237Z,53.78
2022-10-05T01:01:05.476Z,53.82
2022-10-05T01:04:21.973Z,53.98
2022-10-05T01:06:48.961Z,54.09
2022-10-05T01:09:29.943Z,54.07
2022-10-05T01:12:05.983Z,54.12
2022-10-05T01:14:40.292Z,54.11
2022-10-05T01:17:26.307Z,54.14
2022-10-05T01:20:20.612Z,54.17
2022-10-05T01:23:17.767Z,54.33
2022-10-05T01:26:07.939Z,54.29
2022-10-05T01:28:47.148Z,54.38
2022-10-05T01:31:26.120Z,54.31
2022-10-05T01:34:11.300Z,54.32
2022-10-05T01:36:59.813Z,54.41
2022-10-05T01:39:29.658Z,54.34
2022-10-05T01:42:28.988Z,54.33
2022-10-05T01:45:05.019Z,54.37
2022-10-05T01:47:44.933Z,54.33
2022-10-05T01:50:49.403Z,54.31
2022-10-05T01:53:25.031Z,54.33
2022-10-05T01:55:51.947Z,54.32
2022-10-05T01:58:22.855Z,54.34
2022-10-05T02:01:08.303Z,54.41
2022-10-05T02:04:01.371Z,54.36
2022-10-05T02:06:32.589Z,54.34
2022-10-05T02:09:26.381Z,54.36
2022-10-05T02:12:01.267Z,54.32
2022-10-05T02:14:36.735Z,54.36
2022-10-05T02:17:11.161Z,54.41
2022-10-05T02:19:52.730Z,54.36
2022-10-05T02:22:29.008Z,54.47
2022-10-05T02:25:03.244Z,54.48
2022-10-05T02:27:34.735Z,54.43
2022-10-05T02:30:06.451Z,54.45
2022-10-05T02:32:49.989Z,54.37
2022-10-05T02:35:20.036Z,54.34
2022-10-05T02:37:58.034Z,54.40
2022-10-05T02:40:43.676Z,54.40
2022-10-05T02:43:32.770Z,54.43
2022-10-05T02:46:19.079Z,54.37
2022-10-05T02:49:08.815Z,54.43
2022-10-05T02:52:00.983Z,54.36
2022-10-05T02:54:46.427Z,54.31
2022-10-05T02:57:27.228Z,54.46
2022-10-05T03:00:01.750Z,54.38
2022-10-05T03:02:47.609Z,54.38
2022-10-05T03:05:32.238Z,54.40
2022-10-05T03:08:05.342Z,54.35
2022-10-05T03:10:44.428Z,54.23
2022-10-05T03:13:17.906Z,54.37
2022-10-05T03:15:54.224Z,54.28
2022-10-05T03:18:43.412Z,54.26
2022-10-05T03:21:23.940Z,54.28
2022-10-05T03:24:06.295Z,54.35
2022-10-05T03:26:45.074Z,54.31
2022-10-05T03:29:43.684Z,54.29
2022-10-05T03:32:44.002Z,54.32
2022-10-05T03:35:27.751Z,54.33
2022-10-05T03:38:12.378Z,54.34
2022-10-05T03:40:50.632Z,54.23
2022-10-05T03:43:26.643Z,54.31
2022-10-05T03:46:00.870Z,54.27
2022-10-05T03:49:02.348Z,54.20
2022-10-05T03:51:35.131Z,54.26
2022-10-05T03:54:22.679Z,54.22
2022-10-05T03:56:55.884Z,54.19
2022-10-05T03:59:46.194Z,54.30
2022-10-05T04:02:23.227Z,54.40
2022-10-05T04:04:57.054Z,54.29
2022-10-05T04:07:33.515Z,54.32
2022-10-05T04:10:03.420Z,54.32
2022-10-05T04:12:38.786Z,54.26
2022-10-05T04:15:33.880Z,54.13
2022-10-05T04:18:09.080Z,54.22
2022-10-05T04:20:44.965Z,54.17
2022-10-05T04:23:43.319Z,54.17
2022-10-05T04:26:19.022Z,54.15
2022-10-05T04:28:54.252Z,54.08
2022-10-05T04:31:44.648Z,54.10
2022-10-05T04:34:43.933Z,54.08
2022-10-05T04:37:21.936Z,53.96
2022-10-05T04:39:59.186Z,54.02
2022-10-05T04:42:43.326Z,53.95
2022-10-05T04:45:34.184Z,53.96
2022-10-05T04:48:39.834Z,53.99
2022-10-05T04:51:38.542Z,53.94
2022-10-05T04:54:37.936Z,53.83
2022-10-05T04:57:35.875Z,53.82
2022-10-05T05:00:10.252Z,53.86
2022-10-05T05:03:15.086Z,53.81
2022-10-05T05:06:17.749Z,53.83
2022-10-05T05:09:02.758Z,53.84
2022-10-05T05:11:49.433Z,53.81
2022-10-05T05:14:29.872Z,53.74
2022-10-05T05:17:20.997Z,53.75
2022-10-05T05:20:25.736Z,53.75
2022-10-05T05:23:20.001Z,53.67
2022-10-05T05:26:05.714Z,53.59
2022-10-05T05:29:01.739Z,53.72
2022-10-05T05:31:48.742Z,53.60
2022-10-05T05:34:25.730Z,53.59
2022-10-05T05:37:00.885Z,53.68
2022-10-05T05:39:46.294Z,53.62
2022-10-05T05:42:45.518Z,53.67
2022-10-05T05:45:23.019Z,53.76
2022-10-05T05:47:57.118Z,53.77
2022-10-05T05:50:48.061Z,53.79
2022-10-05T05:53:25.490Z,53.75
2022-10-05T05:55:59.365Z,53.77
2022-10-05T05:58:52.258Z,53.84
2022-10-05T06:01:33.292Z,53.65
2022-10-05T06:04:11.335Z,53.78
2022-10-05T06:06:44.823Z,53.70
2022-10-05T06:09:24.706Z,53.75
2022-10-05T06:12:20.033Z,53.68
2022-10-05T06:14:54.526Z,53.60
2022-10-05T06:17:29.179Z,53.67
2022-10-05T06:20:04.688Z,53.67
2022-10-05T06:22:38.957Z,53.69
2022-10-05T06:25:12.013Z,53.67
2022-10-05T06:28:02.516Z,53.71
2022-10-05T06:30:49.322Z,53.84
2022-10-05T06:33:40.760Z,53.77
2022-10-05T06:36:34.835Z,53.65
2022-10-05T06:39:46.075Z,53.63
2022-10-05T06:42:40.612Z,53.56
2022-10-05T06:45:53.307Z,53.46
2022-10-05T06:48:45.063Z,53.44
2022-10-05T06:51:43.831Z,53.41
2022-10-05T06:54:56.203Z,53.35
2022-10-05T06:58:15.532Z,53.33
2022-10-05T07:01:11.180Z,53.36
2022-10-05T07:04:03.470Z,53.24
2022-10-05T07:06:54.990Z,53.21
2022-10-05T07:09:37.632Z,53.17
2022-10-05T07:12:16.498Z,53.15
2022-10-05T07:15:21.469Z,53.18
2022-10-05T07:17:57.648Z,53.12
2022-10-05T07:20:53.832Z,53.24
2022-10-05T07:23:52.797Z,53.26
2022-10-05T07:26:46.833Z,53.24
2022-10-05T07:29:20.142Z,53.32
2022-10-05T07:31:57.688Z,53.39
2022-10-05T07:34:39.352Z,53.41
2022-10-05T07:37:33.516Z,53.52
2022-10-05T07:40:10.337Z,53.56
2022-10-05T07:42:52.115Z,53.76
2022-10-05T07:45:24.841Z,53.72
2022-10-05T07:48:04.540Z,53.74
2022-10-05T07:50:37.756Z,53.77
2022-10-05T07:53:14.260Z,53.80
2022-10-05T07:55:47.650Z,53.92
2022-10-05T07:58:24.653Z,53.81
2022-10-05T08:01:11.461Z,53.80
2022-10-05T08:04:08.298Z,53.80
2022-10-05T08:06:41.026Z,53.91
2022-10-05T08:09:16.190Z,53.76
2022-10-05T08:11:52.418Z,53.84
2022-10-05T08:14:35.117Z,53.81
2022-10-05T08:17:10.984Z,53.83
2022-10-05T08:19:47.134Z,53.72
2022-10-05T08:22:40.602Z,53.83
2022-10-05T08:25:20.654Z,53.87
2022-10-05T08:27:57.451Z,53.81
2022-10-05T08:30:25.101Z,53.93
2022-10-05T08:32:55.449Z,53.99
2022-10-05T08:35:39.713Z,53.93
2022-10-05T08:38:31.735Z,53.97
2022-10-05T08:41:38.262Z,53.92
2022-10-05T08:44:40.850Z,54.07
2022-10-05T08:47:29.793Z,53.95
2022-10-05T08:50:16.175Z,53.94
2022-10-05T08:53:04.444Z,54.02
2022-10-05T08:56:19.854Z,53.94
2022-10-05T08:59:17.111Z,54.05
2022-10-05T09:02:08.692Z,54.10
2022-10-05T09:05:01.858Z,54.07
2022-10-05T09:07:50.214Z,54.10
2022-10-05T09:10:22.994Z,54.21
2022-10-05T09:13:17.462Z,54.09
2022-10-05T09:16:07.590Z,54.08
2022-10-05T09:18:52.715Z,54.05
2022-10-05T09:21:55.665Z,53.94
2022-10-05T09:24:49.571Z,53.71
2022-10-05T09:27:19.149Z,53.58
2022-10-05T09:30:16.854Z,53.53
2022-10-05T09:33:14.388Z,53.23
2022-10-05T09:35:58.231Z,53.14
2022-10-05T09:38:43.533Z,53.16
2022-10-05T09:41:38.321Z,53.02
2022-10-05T09:44:20.191Z,52.73
2022-10-05T09:47:10.349Z,52.58
2022-10-05T09:50:12.228Z,52.43
2022-10-05T09:53:16.332Z,52.34
2022-10-05T09:56:02.019Z,52.11
2022-10-05T09:58:40.678Z,51.92
2022-10-05T10:01:45.207Z,51.77
2022-10-05T10:04:34.332Z,51.65
2022-10-05T10:07:21.264Z,51.42
2022-10-05T10:10:03.378Z,51.32
2022-10-05T10:12:35.311Z,51.30
2022-10-05T10:15:11.293Z,51.07
2022-10-05T10:17:44.337Z,51.02
2022-10-05T10:20:45.264Z,50.99
2022-10-05T10:23:28.623Z,50.86
2022-10-05T10:26:16.798Z,50.65
2022-10-05T10:29:17.748Z,50.58
2022-10-05T10:32:02.925Z,50.55
2022-10-05T10:35:08.374Z,50.48
2022-10-05T10:38:12.045Z,50.33
2022-10-05T10:40:49.567Z,50.22
2022-10-05T10:43:49.605Z,50.25
2022-10-05T10:46:41.199Z,50.18
2022-10-05T10:49:47.242Z,50.14
2022-10-05T10:52:20.203Z,50.21
2022-10-05T10:55:16.368Z,50.10
2022-10-05T10:58:04.714Z,50.01
2022-10-05T11:00:45.932Z,50.03
2022-10-05T11:03:31.360Z,49.98
2022-10-05T11:06:04.855Z,49.92
2022-10-05T11:08:41.101Z,50.00
2022-10-05T11:11:27.392Z,49.94
2022-10-05T11:14:21.734Z,49.90
2022-10-05T11:17:04.471Z,50.19
2022-10-05T11:19:46.330Z,50.44
2022-10-05T11:22:25.785Z,50.71
2022-10-05T11:25:19.972Z,50.94
2022-10-05T11:28:01.138Z,50.98
2022-10-05T11:30:38.373Z,51.27
2022-10-05T11:33:18.051Z,51.33
2022-10-05T11:36:22.650Z,51.95
2022-10-05T11:39:04.940Z,51.99
2022-10-05T11:41:33.034Z,52.13
2022-10-05T11:44:38.934Z,52.18
2022-10-05T11:47:20.679Z,52.22
2022-10-05T11:50:06.821Z,52.21
2022-10-05T11:52:57.301Z,52.17
2022-10-05T11:55:57.831Z,52.19
2022-10-05T11:58:54.905Z,52.36
2022-10-05T12:01:36.260Z,52.35
2022-10-05T12:04:25.150Z,52.31
2022-10-05T12:06:54.751Z,52.29
2022-10-05T12:09:21.609Z,52.26
2022-10-05T12:12:10.422Z,52.19
2022-10-05T12:15:00.989Z,52.13
2022-10-05T12:17:48.676Z,52.02
2022-10-05T12:20:40.394Z,51.83
2022-10-05T12:23:33.666Z,51.74
2022-10-05T12:26:08.238Z,51.63
2022-10-05T12:28:47.407Z,51.59
2022-10-05T12:31:31.092Z,51.39
2022-10-05T12:34:24.512Z,51.21
2022-10-05T12:37:04.015Z,50.98
2022-10-05T12:39:42.311Z,50.89
2022-10-05T12:42:12.145Z,50.92
2022-10-05T12:45:05.155Z,50.88
2022-10-05T12:48:08.702Z,50.63
2022-10-05T12:50:47.374Z,50.56
2022-10-05T12:53:35.124Z,50.46
2022-10-05T12:56:10.214Z,50.31
2022-10-05T12:59:09.799Z,50.21
2022-10-05T13:01:39.510Z,50.07
2022-10-05T13:04:28.777Z,49.93
2022-10-05T13:07:20.123Z,49.88
2022-10-05T13:10:03.896Z,49.77
2022-10-05T13:12:42.556Z,49.64
2022-10-05T13:15:29.853Z,49.64
2022-10-05T13:18:18.823Z,49.41
2022-10-05T13:21:15.459Z,49.36
2022-10-05T13:23:59.763Z,49.22
2022-10-05T13:26:55.312Z,49.16
2022-10-05T13:29:33.310Z,49.03
2022-10-05T13:32:21.258Z,49.14
2022-10-05T13:35:25.059Z,49.09
2022-10-05T13:38:22.478Z,48.97
2022-10-05T13:40:58.048Z,48.84
2022-10-05T13:43:28.137Z,48.84
2022-10-05T13:46:02.181Z,48.75
2022-10-05T13:48:47.558Z,48.75
2022-10-05T13:51:36.774Z,48.60
2022-10-05T13:54:44.977Z,48.55
2022-10-05T13:57:21.538Z,48.57
2022-10-05T13:59:58.745Z,48.42
2022-10-05T14:02:38.494Z,48.29
2022-10-05T14:05:19.031Z,47.98
2022-10-05T14:08:18.856Z,47.90
2022-10-05T14:10:47.883Z,47.82
2022-10-05T14:13:28.274Z,48.01
2022-10-05T14:15:59.639Z,47.95
2022-10-05T14:18:31.040Z,47.85
2022-10-05T14:21:13.312Z,47.86
2022-10-05T14:23:40.492Z,47.92
2022-10-05T14:26:34.427Z,47.92
2022-10-05T14:29:15.100Z,47.87
2022-10-05T14:31:54.766Z,47.81
2022-10-05T14:34:36.789Z,47.83
2022-10-05T14:37:22.626Z,48.01
2022-10-05T14:39:52.172Z,48.34
2022-10-05T14:42:22.880Z,48.50
2022-10-05T14:45:16.120Z,48.53
2022-10-05T14:47:51.201Z,48.66
2022-10-05T14:50:21.731Z,48.83
2022-10-05T14:53:19.055Z,49.01
2022-10-05T14:56:17.280Z,49.24
2022-10-05T14:59:26.672Z,49.40
2022-10-05T15:01:59.654Z,49.48
2022-10-05T15:04:26.493Z,49.69
2022-10-05T15:07:04.338Z,49.69
2022-10-05T15:09:37.239Z,50.04
2022-10-05T15:12:05.055Z,50.21
2022-10-05T15:14:36.638Z,50.13
2022-10-05T15:17:12.624Z,50.41
2022-10-05T15:19:54.666Z,50.49
2022-10-05T15:22:31.888Z,50.67
2022-10-05T15:25:09.933Z,50.73
2022-10-05T15:27:49.565Z,50.82
2022-10-05T15:30:18.676Z,50.99
2022-10-05T15:33:05.377Z,51.02
2022-10-05T15:35:54.917Z,51.12
2022-10-05T15:38:28.462Z,51.11
2022-10-05T15:41:01.358Z,51.20
2022-10-05T15:43:46.720Z,51.09
2022-10-05T15:46:17.469Z,51.28
2022-10-05T15:49:08.570Z,51.30
2022-10-05T15:51:50.936Z,51.31
2022-10-05T15:54:59.467Z,51.36
2022-10-05T15:57:38.351Z,51.42
2022-10-05T16:00:17.784Z,51.45
2022-10-05T16:02:54.558Z,51.51
2022-10-05T16:06:10.971Z,51.55
2022-10-05T16:08:55.823Z,51.64
2022-10-05T16:11:41.114Z,51.63
2022-10-05T16:14:30.673Z,51.74
2022-10-05T16:17:16.373Z,51.71
2022-10-05T16:20:03.322Z,51.80
2022-10-05T16:23:05.667Z,51.82
2022-10-05T16:25:54.277Z,51.87
2022-10-05T16:28:50.077Z,51.90
2022-10-05T16:31:37.541Z,51.89
2022-10-05T16:34:23.377Z,51.88
2022-10-05T16:37:02.424Z,51.91
2022-10-05T16:39:38.343Z,51.99
2022-10-05T16:42:26.802Z,51.98
2022-10-05T16:45:08.152Z,51.98
2022-10-05T16:47:38.133Z,52.07
2022-10-05T16:50:17.586Z,52.21
2022-10-05T16:52:49.160Z,52.26
2022-10-05T16:55:26.597Z,52.20
2022-10-05T16:57:57.204Z,52.27
2022-10-05T17:00:51.877Z,52.28
2022-10-05T17:03:58.054Z,52.27
2022-10-05T17:06:40.682Z,52.38
2022-10-05T17:09:27.589Z,52.31
2022-10-05T17:12:21.572Z,52.40
2022-10-05T17:15:09.137Z,52.49
2022-10-05T17:17:36.863Z,52.49
2022-10-05T17:20:25.539Z,52.47
2022-10-05T17:23:13.559Z,52.56
2022-10-05T17:25:45.114Z,52.64
2022-10-05T17:28:45.001Z,52.58
2022-10-05T17:31:21.856Z,52.67
2022-10-05T17:34:14.041Z,52.68
2022-10-05T17:36:43.114Z,52.71
2022-10-05T17:39:22.681Z,52.74
2022-10-05T17:41:50.074Z,52.75
2022-10-05T17:44:19.902Z,52.78
2022-10-05T17:46:51.298Z,52.78
2022-10-05T17:49:23.052Z,52.77
2022-10-05T17:52:11.817Z,52.84
2022-10-05T17:55:03.543Z,52.79
2022-10-05T17:57:32.020Z,52.90
2022-10-05T18:00:02.323Z,52.83
2022-10-05T18:02:40.841Z,52.85
2022-10-05T18:05:14.686Z,52.97
2022-10-05T18:07:44.926Z,52.93
2022-10-05T18:10:17.494Z,52.96
2022-10-05T18:12:50.404Z,53.03
2022-10-05T18:15:44.901Z,53.03
2022-10-05T18:18:32.991Z,53.08
2022-10-05T18:21:15.300Z,53.01
2022-10-05T18:24:05.127Z,52.92
2022-10-05T18:26:41.423Z,53.06
2022-10-05T18:29:43.190Z,53.14
2022-10-05T18:32:29.538Z,53.06
2022-10-05T18:35:14.146Z,53.07
2022-10-05T18:37:46.933Z,53.06
2022-10-05T18:40:34.485Z,53.16
2022-10-05T18:43:07.361Z,53.48
2022-10-05T18:46:25.798Z,53.45
2022-10-05T18:49:20.399Z,53.48
2022-10-05T18:52:15.955Z,53.44
2022-10-05T18:58:55.933Z,53.83
2022-10-05T19:01:49.268Z,54.11
2022-10-05T19:04:54.963Z,54.26
2022-10-05T19:07:53.948Z,54.21
2022-10-05T19:11:03.213Z,54.24
2022-10-05T19:14:04.041Z,54.27
2022-10-05T19:17:12.644Z,54.21
2022-10-05T19:20:06.875Z,54.25
2022-10-05T19:23:25.044Z,54.27
2022-10-05T19:26:01.597Z,54.15
2022-10-05T19:28:55.244Z,54.24
2022-10-05T19:31:52.975Z,54.20
2022-10-05T19:35:02.234Z,54.31
2022-10-05T19:37:45.607Z,54.23
2022-10-05T19:40:41.853Z,54.16
2022-10-05T19:43:44.741Z,54.28
2022-10-05T19:46:33.339Z,54.28
2022-10-05T19:49:05.387Z,54.10
2022-10-05T19:51:48.356Z,54.22
2022-10-05T19:54:48.244Z,54.15
2022-10-05T19:57:45.782Z,54.24
2022-10-05T20:00:24.863Z,54.17
2022-10-05T20:03:14.155Z,54.22
2022-10-05T20:05:43.955Z,54.17
2022-10-05T20:08:27.771Z,54.17
2022-10-05T20:11:22.558Z,54.13
2022-10-05T20:13:54.688Z,54.12
2022-10-05T20:16:52.632Z,54.15
2022-10-05T20:19:51.862Z,54.12
2022-10-05T20:22:52.730Z,54.09
2022-10-05T20:25:22.608Z,54.15
2022-10-05T20:27:58.302Z,54.06
2022-10-05T20:30:29.018Z,54.13
2022-10-05T20:33:00.740Z,54.11
2022-10-05T20:35:33.479Z,54.21
2022-10-05T20:38:10.835Z,54.15
2022-10-05T20:41:12.179Z,54.15
2022-10-05T20:43:49.893Z,54.16
2022-10-05T20:46:21.286Z,54.21
2022-10-05T20:48:55.886Z,54.22
2022-10-05T20:51:35.067Z,54.24
2022-10-05T20:54:08.391Z,54.27
2022-10-05T20:56:35.955Z,54.33
2022-10-05T20:59:04.704Z,54.39
2022-10-05T21:01:34.456Z,54.49
2022-10-05T21:04:07.212Z,54.42
2022-10-05T21:06:36.443Z,54.48
2022-10-05T21:09:07.484Z,54.53
2022-10-05T21:11:35.904Z,54.42
2022-10-05T21:14:05.850Z,54.44
2022-10-05T21:16:43.265Z,54.49
2022-10-05T21:19:15.421Z,54.40
2022-10-05T21:21:52.500Z,54.37
2022-10-05T21:24:29.056Z,54.42
2022-10-05T21:26:57.738Z,54.39
2022-10-05T21:29:26.502Z,54.45
2022-10-05T21:31:56.182Z,54.35
2022-10-05T21:34:30.910Z,54.43
2022-10-05T21:37:02.318Z,54.42
2022-10-05T21:39:31.095Z,54.43
2022-10-05T21:41:58.301Z,54.41
2022-10-05T21:44:31.712Z,54.42
2022-10-05T21:46:58.884Z,54.33
2022-10-05T21:49:35.621Z,54.32
2022-10-05T21:52:07.066Z,54.36
2022-10-05T21:54:37.049Z,54.41
2022-10-05T21:57:07.735Z,54.34
2022-10-05T21:59:36.568Z,54.32
2022-10-05T22:02:08.614Z,54.26
2022-10-05T22:04:38.601Z,54.32
2022-10-05T22:07:20.484Z,54.28
2022-10-05T22:09:51.915Z,54.25
2022-10-05T22:12:20.796Z,54.27
2022-10-05T22:14:48.962Z,54.26
2022-10-05T22:17:24.775Z,54.21
2022-10-05T22:19:59.466Z,54.19
2022-10-05T22:22:31.884Z,54.13
2022-10-05T22:25:03.183Z,54.19
2022-10-05T22:27:36.131Z,54.21
2022-10-05T22:30:05.432Z,54.17
2022-10-05T22:32:41.271Z,54.16
2022-10-05T22:35:11.746Z,54.05
2022-10-05T22:37:43.481Z,54.11
2022-10-05T22:40:18.162Z,54.13
2022-10-05T22:42:45.508Z,54.15
2022-10-05T22:45:15.220Z,54.18
2022-10-05T22:47:44.232Z,54.17
2022-10-05T22:50:15.719Z,54.17
2022-10-05T22:52:55.425Z,54.17
2022-10-05T22:55:24.723Z,54.16
2022-10-05T22:57:55.456Z,54.14
2022-10-05T23:00:35.214Z,54.16
2022-10-05T23:03:39.357Z,54.17
2022-10-05T23:06:13.622Z,54.20
2022-10-05T23:08:44.228Z,54.12
2022-10-05T23:11:17.045Z,54.14
2022-10-05T23:13:50.487Z,54.24
2022-10-05T23:16:20.369Z,54.17
2022-10-05T23:18:51.640Z,54.10
2022-10-05T23:21:22.353Z,54.13
2022-10-05T23:23:55.019Z,54.06
2022-10-05T23:26:36.834Z,54.03
2022-10-05T23:29:10.239Z,54.05
2022-10-05T23:31:37.407Z,54.06
2022-10-05T23:34:09.688Z,54.10
2022-10-05T23:36:37.858Z,54.08
2022-10-05T23:39:07.045Z,53.98
2022-10-05T23:41:43.966Z,54.09
2022-10-05T23:44:13.611Z,54.12
2022-10-05T23:46:43.013Z,54.02
2022-10-05T23:49:16.200Z,54.09
2022-10-05T23:51:49.299Z,54.09
2022-10-05T23:54:18.377Z,54.02
2022-10-05T23:56:54.332Z,54.02
2022-10-05T23:59:25.896Z,54.04
